Time;durP1;ratioP1;P1;durP2;ratioP2;P2;SDS_P1;SDS_P2;PMS_P1;PMS_P2;Temp;Humidity;BMP_temperature;BMP_pressure;BME280_temperature;BME280_humidity;BME280_pressure;Samples;Min_cycle;Max_cycle;Signal;HPM_P1;HPM_P2
2022/12/01 00:01:36;;;;;;;62.43;35.10;;;1.40;99.90;;;;;;5132878;27;20585;-76
2022/12/01 00:04:06;;;;;;;64.67;35.93;;;1.40;99.90;;;;;;5132905;28;20213;-77
2022/12/01 00:06:34;;;;;;;60.53;34.53;;;1.40;99.90;;;;;;5132457;28;20221;-78
2022/12/01 00:11:47;;;;;;;68.43;35.20;;;1.50;99.90;;;;;;5133065;28;20196;-75
2022/12/01 00:14:16;;;;;;;63.67;35.33;;;1.50;99.90;;;;;;5132137;28;20212;-78
2022/12/01 00:16:46;;;;;;;62.97;35.37;;;1.50;99.90;;;;;;5132959;28;20289;-77
2022/12/01 00:19:14;;;;;;;66.30;37.03;;;1.40;99.90;;;;;;5132937;28;20288;-79
2022/12/01 00:21:42;;;;;;;68.83;36.87;;;1.40;99.90;;;;;;5132869;28;20232;-80
2022/12/01 00:24:11;;;;;;;63.90;36.37;;;1.40;99.90;;;;;;5118452;28;20202;-76
2022/12/01 00:26:39;;;;;;;74.87;37.37;;;1.40;99.90;;;;;;5112218;28;20313;-78
2022/12/01 00:29:07;;;;;;;72.37;37.13;;;1.40;99.90;;;;;;5112442;28;20202;-78
2022/12/01 00:31:36;;;;;;;71.37;37.90;;;1.40;99.90;;;;;;5112033;28;20299;-75
2022/12/01 00:34:05;;;;;;;73.43;39.13;;;1.40;99.90;;;;;;5103560;28;20206;-78
2022/12/01 00:36:38;;;;;;;72.63;36.70;;;1.40;99.90;;;;;;5112517;28;20274;-77
2022/12/01 00:39:08;;;;;;;70.17;38.07;;;1.40;99.90;;;;;;5131077;28;20217;-76
2022/12/01 00:41:36;;;;;;;70.70;36.80;;;1.40;99.90;;;;;;5131825;28;20699;-76
2022/12/01 00:44:05;;;;;;;68.07;37.33;;;1.50;99.90;;;;;;5132671;28;20205;-78
2022/12/01 00:46:33;;;;;;;69.30;38.53;;;1.50;99.90;;;;;;5133014;28;20218;-77
2022/12/01 00:49:01;;;;;;;66.20;37.73;;;1.60;99.90;;;;;;5132137;27;20213;-75
2022/12/01 00:51:31;;;;;;;65.03;35.63;;;1.50;99.90;;;;;;5136015;27;20536;-75
2022/12/01 00:53:59;;;;;;;67.83;37.13;;;1.60;99.90;;;;;;5140668;27;20209;-74
2022/12/01 00:56:27;;;;;;;71.40;37.20;;;1.60;99.90;;;;;;5139343;27;20581;-75
2022/12/01 00:58:56;;;;;;;69.03;37.23;;;1.60;99.90;;;;;;5130114;27;20233;-75
2022/12/01 01:01:24;;;;;;;63.50;35.90;;;1.60;99.90;;;;;;5121078;28;20259;-75
2022/12/01 01:03:52;;;;;;;69.03;37.60;;;1.60;99.90;;;;;;5118350;28;20210;-75
2022/12/01 01:06:21;;;;;;;63.50;36.77;;;1.60;99.90;;;;;;5126893;27;20201;-74
2022/12/01 01:08:54;;;;;;;63.83;36.67;;;1.60;99.90;;;;;;5137421;27;20330;-76
2022/12/01 01:11:22;;;;;;;70.77;37.40;;;1.50;99.90;;;;;;5136964;27;20212;-77
2022/12/01 01:13:50;;;;;;;68.07;37.03;;;1.60;99.90;;;;;;5136723;27;20197;-78
2022/12/01 01:16:20;;;;;;;64.33;36.17;;;1.60;99.90;;;;;;5136143;27;20217;-78
2022/12/01 01:18:48;;;;;;;69.57;35.60;;;1.60;99.90;;;;;;5136608;27;20206;-75
2022/12/01 01:21:19;;;;;;;62.80;36.73;;;1.60;99.90;;;;;;5136396;27;20217;-75
2022/12/01 01:23:51;;;;;;;61.60;35.13;;;1.60;99.90;;;;;;5133891;27;20240;-75
2022/12/01 01:26:23;;;;;;;70.07;37.17;;;1.60;99.90;;;;;;5136624;27;20212;-76
2022/12/01 01:28:52;;;;;;;62.63;35.30;;;1.60;99.90;;;;;;5137979;27;20596;-77
2022/12/01 01:31:21;;;;;;;62.27;35.67;;;1.60;99.90;;;;;;5124822;27;20229;-78
2022/12/01 01:33:50;;;;;;;61.10;35.97;;;1.70;99.90;;;;;;5115899;28;20206;-77
2022/12/01 01:36:19;;;;;;;67.83;36.97;;;1.50;99.90;;;;;;5131266;27;20206;-76
2022/12/01 01:38:50;;;;;;;60.47;36.47;;;1.60;99.90;;;;;;5145040;27;20217;-79
2022/12/01 01:41:20;;;;;;;63.73;35.77;;;1.60;99.90;;;;;;5134183;27;20212;-79
2022/12/01 01:43:50;;;;;;;60.53;34.90;;;1.70;99.90;;;;;;5135358;27;20254;-77
2022/12/01 01:46:21;;;;;;;62.57;35.40;;;1.70;99.90;;;;;;5135706;27;20206;-78
2022/12/01 01:48:52;;;;;;;61.37;35.87;;;1.70;99.90;;;;;;5115884;27;20316;-80
2022/12/01 01:51:24;;;;;;;65.20;35.53;;;1.70;99.90;;;;;;5115303;28;20272;-79
2022/12/01 01:53:56;;;;;;;62.00;35.87;;;1.70;99.90;;;;;;5114684;28;20688;-79
2022/12/01 01:56:28;;;;;;;63.57;36.50;;;1.70;99.90;;;;;;5123031;27;20209;-76
2022/12/01 01:58:57;;;;;;;59.83;35.93;;;1.70;99.90;;;;;;5136168;27;20197;-79
2022/12/01 02:01:28;;;;;;;59.50;35.03;;;1.70;99.90;;;;;;5136028;27;20225;-78
2022/12/01 02:03:56;;;;;;;60.03;35.60;;;1.60;99.90;;;;;;5141458;27;20205;-77
2022/12/01 02:06:24;;;;;;;60.13;34.70;;;1.60;99.90;;;;;;5142213;27;20292;-75
2022/12/01 02:08:53;;;;;;;62.90;34.50;;;1.60;99.90;;;;;;5136760;27;20221;-75
2022/12/01 02:11:47;;;;;;;60.73;35.97;;;1.60;99.90;;;;;;5136193;27;20213;-76
2022/12/01 02:14:41;;;;;;;58.90;34.67;;;1.60;99.90;;;;;;5134601;27;20202;-78
2022/12/01 02:17:20;;;;;;;57.33;34.83;;;1.60;99.90;;;;;;5136448;27;20660;-79
2022/12/01 02:20:17;;;;;;;56.20;34.50;;;1.60;99.90;;;;;;5135467;27;20200;-76
2022/12/01 02:23:02;;;;;;;58.53;34.23;;;1.60;99.90;;;;;;5140616;27;20188;-74
2022/12/01 02:25:45;;;;;;;58.60;35.27;;;1.60;99.90;;;;;;5142164;27;20623;-77
2022/12/01 02:28:41;;;;;;;56.77;35.57;;;1.70;99.90;;;;;;5135029;27;20691;-78
2022/12/01 02:31:15;;;;;;;58.47;35.67;;;1.60;99.90;;;;;;5134705;27;20707;-79
2022/12/01 02:33:51;;;;;;;55.00;34.77;;;1.70;99.90;;;;;;5133362;27;20209;-80
2022/12/01 02:36:29;;;;;;;55.63;33.97;;;1.60;99.90;;;;;;5134927;27;20364;-80
2022/12/01 02:39:05;;;;;;;57.10;34.03;;;1.60;99.90;;;;;;5134842;27;20545;-77
2022/12/01 02:41:38;;;;;;;58.37;35.27;;;1.60;99.90;;;;;;5134790;27;20193;-77
2022/12/01 02:44:12;;;;;;;61.33;35.37;;;1.60;99.90;;;;;;5134571;27;20579;-78
2022/12/01 02:46:45;;;;;;;53.70;33.47;;;1.70;99.90;;;;;;5135307;27;20185;-77
2022/12/01 02:49:17;;;;;;;56.17;34.53;;;1.70;99.90;;;;;;5134580;27;20206;-76
2022/12/01 02:51:46;;;;;;;55.00;34.17;;;1.70;99.90;;;;;;5142769;27;20190;-75
2022/12/01 02:54:17;;;;;;;56.90;34.83;;;1.70;99.90;;;;;;5156500;27;20201;-77
2022/12/01 02:56:46;;;;;;;55.17;34.03;;;1.80;99.90;;;;;;5134631;27;20216;-77
2022/12/01 02:59:15;;;;;;;47.67;32.00;;;1.70;99.90;;;;;;5134155;27;20264;-79
2022/12/01 03:02:06;;;;;;;53.13;33.73;;;1.70;99.90;;;;;;5133434;27;20696;-77
2022/12/01 03:04:55;;;;;;;51.60;32.53;;;1.70;99.90;;;;;;5134700;27;20201;-76
2022/12/01 03:07:43;;;;;;;55.27;34.50;;;1.70;99.90;;;;;;5130665;27;20522;-76
2022/12/01 03:10:22;;;;;;;52.67;34.10;;;1.70;99.90;;;;;;5138867;27;20201;-75
2022/12/01 03:13:01;;;;;;;51.20;31.87;;;1.80;99.90;;;;;;5134327;27;20277;-76
2022/12/01 03:15:35;;;;;;;49.43;33.03;;;1.90;99.90;;;;;;5135050;27;20208;-74
2022/12/01 03:18:15;;;;;;;50.43;32.03;;;1.80;99.90;;;;;;5134378;27;20185;-77
2022/12/01 03:20:50;;;;;;;50.13;31.97;;;1.80;99.90;;;;;;5133004;27;20655;-76
2022/12/01 03:23:23;;;;;;;50.20;32.83;;;1.80;99.90;;;;;;5134014;27;20201;-78
2022/12/01 03:25:54;;;;;;;47.87;31.53;;;1.90;99.90;;;;;;5133986;27;20639;-76
2022/12/01 03:28:29;;;;;;;49.57;31.40;;;1.80;99.90;;;;;;5131630;27;20311;-78
2022/12/01 03:31:01;;;;;;;49.80;32.00;;;1.90;99.90;;;;;;5133195;27;20225;-80
2022/12/01 03:33:34;;;;;;;48.07;31.73;;;1.90;99.90;;;;;;5133310;27;20266;-78
2022/12/01 03:36:07;;;;;;;47.57;32.20;;;1.90;99.90;;;;;;5133185;27;20224;-78
2022/12/01 03:38:37;;;;;;;46.27;30.53;;;1.90;99.90;;;;;;5112846;28;20194;-80
2022/12/01 03:41:09;;;;;;;46.03;31.03;;;1.90;99.90;;;;;;5112738;28;20197;-76
2022/12/01 03:43:41;;;;;;;50.40;32.27;;;1.90;99.90;;;;;;5112517;28;20237;-76
2022/12/01 03:46:16;;;;;;;48.03;31.83;;;1.90;99.90;;;;;;5125343;27;20210;-79
2022/12/01 03:48:46;;;;;;;49.57;30.97;;;1.90;99.90;;;;;;5133536;27;20258;-77
2022/12/01 03:51:19;;;;;;;46.87;31.83;;;1.90;99.90;;;;;;5133113;27;20201;-78
2022/12/01 03:53:54;;;;;;;47.83;31.50;;;1.80;99.90;;;;;;5131119;27;20221;-76
2022/12/01 03:56:27;;;;;;;45.10;29.97;;;1.90;99.90;;;;;;5133410;27;20212;-80
2022/12/01 03:58:57;;;;;;;47.43;30.63;;;1.90;99.90;;;;;;5133328;27;20192;-75
2022/12/01 04:01:31;;;;;;;42.93;29.60;;;1.90;99.90;;;;;;5132975;27;20632;-77
2022/12/01 04:04:05;;;;;;;45.80;31.07;;;1.90;99.90;;;;;;5131895;28;20205;-78
2022/12/01 04:06:39;;;;;;;49.17;30.67;;;1.90;99.90;;;;;;5133117;28;20205;-78
2022/12/01 04:09:07;;;;;;;45.67;30.17;;;2.00;99.90;;;;;;5133282;28;20236;-80
2022/12/01 04:14:21;;;;;;;43.03;29.10;;;1.90;99.90;;;;;;5134341;28;20196;-77
2022/12/01 04:16:49;;;;;;;44.10;29.47;;;2.00;99.90;;;;;;5134480;28;20671;-76
2022/12/01 04:19:18;;;;;;;43.23;28.23;;;2.00;99.90;;;;;;5133832;28;20213;-77
2022/12/01 04:21:46;;;;;;;42.67;29.30;;;1.90;99.90;;;;;;5134279;28;20209;-77
2022/12/01 04:24:15;;;;;;;45.37;29.23;;;2.00;99.90;;;;;;5135895;27;20205;-76
2022/12/01 04:26:44;;;;;;;47.53;30.93;;;1.90;99.90;;;;;;5136865;27;20236;-77
2022/12/01 04:29:14;;;;;;;44.73;30.17;;;1.90;99.90;;;;;;5138597;27;20228;-78
2022/12/01 04:31:42;;;;;;;42.57;28.17;;;1.90;99.90;;;;;;5137876;27;20224;-76
2022/12/01 04:34:10;;;;;;;46.47;29.53;;;1.90;99.90;;;;;;5137672;27;20201;-78
2022/12/01 04:36:40;;;;;;;45.40;30.57;;;1.90;99.90;;;;;;5137611;27;20217;-74
2022/12/01 04:39:08;;;;;;;47.30;30.80;;;1.90;99.90;;;;;;5138269;27;20212;-76
2022/12/01 04:41:36;;;;;;;44.97;30.00;;;1.80;99.90;;;;;;5138374;27;20209;-77
2022/12/01 04:44:04;;;;;;;48.77;30.57;;;1.90;99.90;;;;;;5137826;27;20205;-75
2022/12/01 04:46:32;;;;;;;46.63;29.33;;;1.90;99.90;;;;;;5127190;27;20577;-79
2022/12/01 04:49:00;;;;;;;41.57;29.03;;;2.00;99.90;;;;;;5117563;28;20722;-77
2022/12/01 04:51:28;;;;;;;44.60;29.47;;;1.90;99.90;;;;;;5117143;28;20683;-77
2022/12/01 04:53:59;;;;;;;44.90;29.27;;;1.80;99.90;;;;;;5116731;28;20218;-76
2022/12/01 04:56:27;;;;;;;45.03;28.73;;;1.90;99.90;;;;;;5137180;27;20216;-75
2022/12/01 04:58:55;;;;;;;44.53;29.40;;;1.90;99.90;;;;;;5137619;27;20202;-75
2022/12/01 05:01:24;;;;;;;42.20;27.93;;;1.80;99.90;;;;;;5138072;27;20571;-78
2022/12/01 05:03:52;;;;;;;42.23;28.60;;;1.80;99.90;;;;;;5132169;27;20275;-77
2022/12/01 05:06:23;;;;;;;46.73;29.73;;;1.80;99.90;;;;;;5117848;28;20217;-79
2022/12/01 05:08:54;;;;;;;44.43;29.50;;;1.90;99.90;;;;;;5118445;28;20321;-77
2022/12/01 05:11:24;;;;;;;40.80;28.20;;;1.90;99.90;;;;;;5118406;28;20197;-79
2022/12/01 05:13:52;;;;;;;41.00;27.53;;;1.90;99.90;;;;;;5118128;28;20208;-76
2022/12/01 05:16:25;;;;;;;42.70;29.13;;;1.90;99.90;;;;;;5120781;28;20207;-76
2022/12/01 05:20:55;;;;;;;45.67;29.73;;;2.00;99.90;;;;;;5123697;28;20206;-76
2022/12/01 05:21:44;;;;;;;43.27;28.73;;;1.90;99.90;;;;;;5121666;28;20214;-77
2022/12/01 05:24:13;;;;;;;43.87;28.73;;;2.00;99.90;;;;;;5123598;28;20202;-77
2022/12/01 05:26:48;;;;;;;41.07;28.20;;;2.00;99.90;;;;;;5123203;28;20205;-77
2022/12/01 05:29:17;;;;;;;38.23;27.13;;;2.00;99.90;;;;;;5119077;28;20688;-79
2022/12/01 05:31:46;;;;;;;38.30;27.10;;;2.00;99.90;;;;;;5137030;27;20234;-77
2022/12/01 05:34:14;;;;;;;39.83;27.13;;;2.00;99.90;;;;;;5139906;27;20210;-76
2022/12/01 05:36:42;;;;;;;38.60;25.90;;;2.00;99.90;;;;;;5141042;27;20211;-75
2022/12/01 05:39:10;;;;;;;40.10;27.63;;;2.00;99.90;;;;;;5139930;27;20212;-78
2022/12/01 05:41:41;;;;;;;35.87;26.13;;;2.00;99.90;;;;;;5141314;27;20243;-76
2022/12/01 05:44:10;;;;;;;40.07;27.17;;;2.00;99.90;;;;;;5139569;27;20279;-77
2022/12/01 05:46:40;;;;;;;39.03;27.00;;;2.00;99.90;;;;;;5137067;27;20209;-76
2022/12/01 05:49:08;;;;;;;38.13;25.90;;;2.00;99.90;;;;;;5138855;27;20317;-77
2022/12/01 05:51:36;;;;;;;35.80;25.43;;;2.00;99.90;;;;;;5137708;27;20209;-75
2022/12/01 05:54:05;;;;;;;37.87;26.13;;;2.00;99.90;;;;;;5136534;27;20221;-76
2022/12/01 05:56:33;;;;;;;37.30;26.30;;;2.00;99.90;;;;;;5135291;27;20232;-74
2022/12/01 05:59:01;;;;;;;34.10;24.63;;;2.00;99.90;;;;;;5135241;27;20212;-76
2022/12/01 06:01:30;;;;;;;37.33;25.73;;;2.00;99.90;;;;;;5137718;27;20292;-76
2022/12/01 06:03:58;;;;;;;37.83;25.77;;;1.90;99.90;;;;;;5138363;27;20201;-78
2022/12/01 06:06:27;;;;;;;37.80;25.97;;;1.90;99.90;;;;;;5136780;27;20193;-76
2022/12/01 06:08:55;;;;;;;37.33;25.57;;;1.90;99.90;;;;;;5135931;27;20205;-76
2022/12/01 06:11:25;;;;;;;35.73;24.97;;;1.90;99.90;;;;;;5136803;27;20666;-76
2022/12/01 06:13:53;;;;;;;35.03;25.43;;;1.90;99.90;;;;;;5141296;27;20216;-75
2022/12/01 06:16:21;;;;;;;35.87;25.33;;;1.90;99.90;;;;;;5141885;27;20218;-75
2022/12/01 06:18:50;;;;;;;36.20;25.53;;;1.80;99.90;;;;;;5142054;27;20667;-78
2022/12/01 06:21:18;;;;;;;36.60;25.97;;;1.80;99.90;;;;;;5143735;27;20729;-75
2022/12/01 06:23:46;;;;;;;33.70;24.73;;;1.80;99.90;;;;;;5136271;27;20210;-76
2022/12/01 06:26:14;;;;;;;36.33;25.83;;;1.90;99.90;;;;;;5135453;27;20210;-76
2022/12/01 06:28:42;;;;;;;38.87;26.47;;;1.80;99.90;;;;;;5132618;27;20212;-79
2022/12/01 06:31:13;;;;;;;39.00;26.87;;;1.80;99.90;;;;;;5114583;28;20235;-77
2022/12/01 06:33:41;;;;;;;38.70;25.80;;;1.90;99.90;;;;;;5125761;27;20235;-75
2022/12/01 06:36:11;;;;;;;41.90;25.93;;;1.90;99.90;;;;;;5135311;27;20210;-76
2022/12/01 06:38:39;;;;;;;38.60;25.20;;;1.80;99.90;;;;;;5135137;27;20663;-75
2022/12/01 06:41:08;;;;;;;36.93;24.30;;;1.80;99.90;;;;;;5133219;27;20292;-78
2022/12/01 06:43:38;;;;;;;39.67;25.70;;;1.90;99.90;;;;;;5134511;27;20220;-80
2022/12/01 06:46:06;;;;;;;35.60;25.87;;;1.80;99.90;;;;;;5134710;27;20686;-76
2022/12/01 06:48:35;;;;;;;35.63;26.03;;;1.90;99.90;;;;;;5131580;27;20648;-77
2022/12/01 06:51:03;;;;;;;40.90;27.70;;;1.90;99.90;;;;;;5134277;27;20225;-76
2022/12/01 06:53:32;;;;;;;40.57;26.40;;;1.90;99.90;;;;;;5133660;27;20767;-77
2022/12/01 06:56:02;;;;;;;34.60;25.40;;;1.90;99.90;;;;;;5133427;27;20213;-76
2022/12/01 06:58:30;;;;;;;38.63;26.30;;;1.90;99.90;;;;;;5134493;27;20570;-79
2022/12/01 07:00:59;;;;;;;35.83;24.90;;;2.00;99.90;;;;;;5134799;27;20198;-78
2022/12/01 07:03:30;;;;;;;41.20;25.80;;;2.00;99.90;;;;;;5134802;27;20259;-74
2022/12/01 07:06:00;;;;;;;36.17;24.07;;;1.90;99.90;;;;;;5132983;27;20205;-79
2022/12/01 07:08:30;;;;;;;36.40;24.57;;;1.90;99.90;;;;;;5134131;27;20213;-77
2022/12/01 07:11:01;;;;;;;38.57;26.10;;;1.90;99.90;;;;;;5133962;27;20229;-79
2022/12/01 07:13:30;;;;;;;38.07;25.30;;;2.00;99.90;;;;;;5132686;27;20209;-79
2022/12/01 07:16:01;;;;;;;37.17;25.67;;;2.00;99.90;;;;;;5134459;27;20527;-79
2022/12/01 07:18:30;;;;;;;35.80;25.07;;;1.90;99.90;;;;;;5134025;27;20269;-77
2022/12/01 07:21:05;;;;;;;37.93;26.17;;;2.00;99.90;;;;;;5129613;27;20206;-81
2022/12/01 07:23:36;;;;;;;36.27;25.27;;;2.00;99.90;;;;;;5113204;28;20281;-76
2022/12/01 07:26:07;;;;;;;39.03;25.57;;;2.00;99.90;;;;;;5114659;28;20237;-78
2022/12/01 07:28:35;;;;;;;38.10;26.63;;;2.00;99.90;;;;;;5128002;27;20647;-78
2022/12/01 07:31:05;;;;;;;35.13;25.67;;;1.90;99.90;;;;;;5132694;27;20233;-76
2022/12/01 07:33:33;;;;;;;40.67;26.37;;;1.90;99.90;;;;;;5133204;27;20198;-76
2022/12/01 07:36:04;;;;;;;37.37;26.20;;;1.90;99.90;;;;;;5133417;27;20225;-79
2022/12/01 07:38:33;;;;;;;36.20;25.37;;;2.00;99.90;;;;;;5133726;27;20231;-75
2022/12/01 07:41:02;;;;;;;37.53;25.37;;;2.00;99.90;;;;;;5132852;27;20212;-78
2022/12/01 07:43:33;;;;;;;37.47;25.60;;;1.90;99.90;;;;;;5133769;27;20205;-78
2022/12/01 07:46:06;;;;;;;36.97;25.33;;;2.00;99.90;;;;;;5133811;27;20193;-78
2022/12/01 07:48:34;;;;;;;36.07;25.90;;;2.00;99.90;;;;;;5132777;27;20666;-79
2022/12/01 07:51:03;;;;;;;35.10;25.90;;;2.00;99.90;;;;;;5132944;27;20221;-79
2022/12/01 07:53:31;;;;;;;37.10;25.10;;;2.10;99.90;;;;;;5132821;27;20212;-81
2022/12/01 07:55:59;;;;;;;36.00;24.90;;;2.10;99.90;;;;;;5134588;27;20296;-79
2022/12/01 07:58:37;;;;;;;35.07;24.93;;;2.10;99.90;;;;;;5132552;27;20288;-77
2022/12/01 08:01:10;;;;;;;37.97;26.03;;;2.20;99.90;;;;;;5125360;27;20201;-80
2022/12/01 08:03:39;;;;;;;34.33;25.07;;;2.30;99.90;;;;;;5132770;27;20200;-81
2022/12/01 08:06:08;;;;;;;36.37;25.20;;;2.30;99.90;;;;;;5133221;28;20302;-77
2022/12/01 08:08:38;;;;;;;31.83;24.00;;;2.30;99.90;;;;;;5133458;28;20255;-76
2022/12/01 08:11:10;;;;;;;33.03;24.17;;;2.40;99.90;;;;;;5134215;28;20227;-81
2022/12/01 08:13:39;;;;;;;33.80;24.50;;;2.40;99.90;;;;;;5127319;28;20209;-74
2022/12/01 08:16:10;;;;;;;31.13;23.63;;;2.30;99.90;;;;;;5114345;28;20221;-79
2022/12/01 08:18:39;;;;;;;32.97;24.00;;;2.20;99.90;;;;;;5112637;28;20255;-78
2022/12/01 08:21:12;;;;;;;34.53;24.67;;;2.20;99.90;;;;;;5117495;28;20209;-80
2022/12/01 08:23:41;;;;;;;34.13;23.83;;;2.30;99.90;;;;;;5132722;28;20200;-78
2022/12/01 08:26:12;;;;;;;34.73;24.77;;;2.40;99.90;;;;;;5132728;28;20202;-79
2022/12/01 08:28:43;;;;;;;34.17;25.13;;;2.50;99.90;;;;;;5134825;28;20656;-79
2022/12/01 08:31:13;;;;;;;33.47;24.70;;;2.50;99.90;;;;;;5132215;28;20233;-78
2022/12/01 08:33:42;;;;;;;34.80;24.13;;;2.70;99.90;;;;;;5132808;28;20186;-80
2022/12/01 08:36:10;;;;;;;35.63;24.63;;;2.50;99.90;;;;;;5133947;28;20233;-77
2022/12/01 08:38:38;;;;;;;34.70;23.93;;;2.50;99.90;;;;;;5132793;28;20792;-75
2022/12/01 08:41:08;;;;;;;32.37;23.60;;;2.50;99.90;;;;;;5134790;28;20206;-76
2022/12/01 08:43:39;;;;;;;33.03;23.33;;;2.50;99.90;;;;;;5134426;28;20216;-76
2022/12/01 08:46:31;;;;;;;31.63;23.70;;;2.50;99.90;;;;;;5132049;28;20205;-79
2022/12/01 08:48:59;;;;;;;29.93;22.93;;;2.60;99.90;;;;;;5133717;28;20201;-75
2022/12/01 08:51:28;;;;;;;33.53;24.07;;;2.60;99.90;;;;;;5142235;28;20230;-74
2022/12/01 08:54:04;;;;;;;33.00;24.53;;;2.60;99.90;;;;;;5139061;28;20224;-77
2022/12/01 08:56:35;;;;;;;34.77;23.93;;;2.70;99.90;;;;;;5118077;28;20210;-75
2022/12/01 08:59:03;;;;;;;33.90;22.83;;;2.70;99.90;;;;;;5112835;28;20785;-78
2022/12/01 09:01:33;;;;;;;32.07;23.13;;;2.70;99.90;;;;;;5112752;28;20574;-75
2022/12/01 09:04:07;;;;;;;32.03;23.20;;;2.60;99.90;;;;;;5119612;28;20728;-76
2022/12/01 09:06:40;;;;;;;33.87;23.73;;;2.70;99.90;;;;;;5133898;28;20245;-81
2022/12/01 09:09:15;;;;;;;32.30;23.70;;;2.60;99.90;;;;;;5133461;28;20293;-77
2022/12/01 09:11:43;;;;;;;31.50;23.23;;;2.60;99.90;;;;;;5135093;27;20271;-79
2022/12/01 09:14:13;;;;;;;32.40;23.27;;;2.50;99.90;;;;;;5123399;27;20206;-77
2022/12/01 09:16:44;;;;;;;32.87;23.73;;;2.50;99.90;;;;;;5115396;28;20296;-77
2022/12/01 09:19:19;;;;;;;32.83;24.20;;;2.50;99.90;;;;;;5115805;28;20289;-74
2022/12/01 09:21:53;;;;;;;32.13;23.03;;;2.50;99.90;;;;;;5119238;28;20236;-78
2022/12/01 09:24:23;;;;;;;31.50;23.37;;;2.60;99.90;;;;;;5133724;27;20206;-77
2022/12/01 09:26:56;;;;;;;33.50;23.40;;;2.60;99.90;;;;;;5141960;27;20210;-78
2022/12/01 09:29:27;;;;;;;31.30;23.70;;;2.70;99.90;;;;;;5143578;27;20258;-75
2022/12/01 09:31:58;;;;;;;32.97;23.57;;;2.60;99.90;;;;;;5121115;27;20412;-75
2022/12/01 09:34:27;;;;;;;34.80;23.53;;;2.60;99.90;;;;;;5121087;28;20206;-78
2022/12/01 09:36:57;;;;;;;33.70;24.43;;;2.70;99.90;;;;;;5118934;28;20210;-80
2022/12/01 09:39:26;;;;;;;34.20;24.50;;;2.60;99.90;;;;;;5123676;27;20668;-81
2022/12/01 09:41:57;;;;;;;34.53;24.63;;;2.70;99.90;;;;;;5135334;27;20565;-77
2022/12/01 09:44:41;;;;;;;36.80;24.77;;;2.80;99.90;;;;;;5135733;27;20324;-73
2022/12/01 09:47:19;;;;;;;35.97;24.57;;;2.70;99.90;;;;;;5135215;27;20258;-74
2022/12/01 09:49:56;;;;;;;40.90;25.77;;;2.70;99.90;;;;;;5136043;27;20189;-74
2022/12/01 09:52:28;;;;;;;41.40;24.63;;;2.70;99.90;;;;;;5138996;27;20325;-74
2022/12/01 09:54:59;;;;;;;39.17;25.60;;;2.60;99.90;;;;;;5136279;27;20202;-75
2022/12/01 09:57:31;;;;;;;38.47;25.77;;;2.70;99.90;;;;;;5135091;27;20205;-76
2022/12/01 10:00:02;;;;;;;45.23;27.10;;;2.70;99.90;;;;;;5135733;27;20229;-76
2022/12/01 10:02:35;;;;;;;42.30;27.03;;;2.60;99.90;;;;;;5135602;27;20197;-76
2022/12/01 10:05:06;;;;;;;46.30;27.80;;;2.60;99.90;;;;;;5135492;27;20325;-78
2022/12/01 10:07:39;;;;;;;45.27;27.23;;;2.70;99.90;;;;;;5135706;27;20209;-75
2022/12/01 10:10:16;;;;;;;48.33;28.40;;;2.70;99.90;;;;;;5135612;27;20194;-76
2022/12/01 10:12:47;;;;;;;44.60;27.67;;;2.70;99.90;;;;;;5135038;27;20217;-79
2022/12/01 10:15:25;;;;;;;43.83;26.97;;;2.60;99.90;;;;;;5115761;27;20233;-78
2022/12/01 10:18:08;;;;;;;43.33;27.63;;;2.60;99.90;;;;;;5114860;28;20217;-78
2022/12/01 10:20:44;;;;;;;44.70;27.57;;;2.60;99.90;;;;;;5114947;28;20197;-79
2022/12/01 10:23:33;;;;;;;44.80;26.97;;;2.60;99.90;;;;;;5124774;27;20200;-78
2022/12/01 10:26:07;;;;;;;44.87;26.80;;;2.60;99.90;;;;;;5135650;27;20217;-77
2022/12/01 10:28:53;;;;;;;43.63;26.47;;;2.60;99.90;;;;;;5135771;27;20565;-76
2022/12/01 10:31:26;;;;;;;47.03;27.40;;;2.60;99.90;;;;;;5134603;27;20576;-75
2022/12/01 10:34:05;;;;;;;40.20;26.00;;;2.60;99.90;;;;;;5134966;27;20196;-77
2022/12/01 10:36:34;;;;;;;39.93;25.33;;;2.60;99.90;;;;;;5135429;27;20200;-78
2022/12/01 10:39:05;;;;;;;40.97;26.97;;;2.60;99.90;;;;;;5133740;27;20210;-79
2022/12/01 10:41:36;;;;;;;42.70;28.00;;;2.60;99.90;;;;;;5135824;27;20193;-78
2022/12/01 10:44:07;;;;;;;47.70;27.93;;;2.60;99.90;;;;;;5135986;27;20186;-79
2022/12/01 10:46:41;;;;;;;46.03;26.70;;;2.60;99.90;;;;;;5134456;27;20197;-79
2022/12/01 10:49:13;;;;;;;49.73;28.07;;;2.70;99.90;;;;;;5116430;27;20221;-76
2022/12/01 10:51:53;;;;;;;45.07;27.93;;;2.70;99.90;;;;;;5134686;27;20214;-79
2022/12/01 10:54:22;;;;;;;48.87;27.97;;;2.70;99.90;;;;;;5134358;27;20213;-77
2022/12/01 10:56:56;;;;;;;48.03;29.03;;;2.70;99.90;;;;;;5130214;27;20198;-77
2022/12/01 10:59:32;;;;;;;42.47;26.00;;;2.80;99.90;;;;;;5114447;28;20639;-79
2022/12/01 11:02:02;;;;;;;45.70;26.17;;;2.90;99.90;;;;;;5114509;28;20462;-79
2022/12/01 11:04:44;;;;;;;42.87;25.50;;;2.90;99.90;;;;;;5114564;28;20656;-79
2022/12/01 11:07:18;;;;;;;46.53;27.40;;;2.80;99.90;;;;;;5113234;27;20248;-77
2022/12/01 11:09:54;;;;;;;44.27;26.00;;;2.90;99.90;;;;;;5113549;28;20637;-74
2022/12/01 11:12:23;;;;;;;44.40;27.27;;;3.00;99.90;;;;;;5113259;28;20535;-77
2022/12/01 11:14:54;;;;;;;46.37;27.13;;;3.10;99.90;;;;;;5118725;27;20198;-80
2022/12/01 11:17:41;;;;;;;46.67;25.40;;;3.00;99.90;;;;;;5134772;27;20190;-73
2022/12/01 11:20:27;;;;;;;38.30;22.63;;;3.10;99.90;;;;;;5134312;27;20201;-76
2022/12/01 11:23:27;;;;;;;32.70;20.87;;;3.20;99.90;;;;;;5133905;27;20239;-79
2022/12/01 11:26:06;;;;;;;31.27;21.40;;;3.10;99.90;;;;;;5117965;27;20668;-78
2022/12/01 11:28:35;;;;;;;35.07;21.77;;;3.10;99.90;;;;;;5113801;28;20636;-78
2022/12/01 11:31:07;;;;;;;34.00;20.70;;;3.10;99.90;;;;;;5113613;28;20674;-74
2022/12/01 11:33:45;;;;;;;34.30;20.73;;;3.10;99.90;;;;;;5126638;27;20225;-73
2022/12/01 11:36:23;;;;;;;34.47;21.50;;;3.10;99.90;;;;;;5134406;27;20280;-73
2022/12/01 11:38:56;;;;;;;39.40;23.53;;;3.00;99.90;;;;;;5134880;27;20193;-78
2022/12/01 11:41:35;;;;;;;36.93;22.53;;;3.00;99.90;;;;;;5123421;27;20196;-77
2022/12/01 11:44:05;;;;;;;42.17;22.57;;;2.90;99.90;;;;;;5118232;28;20217;-76
2022/12/01 11:46:53;;;;;;;33.07;21.50;;;2.80;99.90;;;;;;5113884;28;20198;-80
2022/12/01 11:49:44;;;;;;;38.93;23.50;;;2.90;99.90;;;;;;5112542;28;20217;-74
2022/12/01 11:52:24;;;;;;;35.30;22.30;;;2.90;99.90;;;;;;5112613;28;20487;-76
2022/12/01 11:54:57;;;;;;;33.17;21.23;;;3.00;99.90;;;;;;5112742;28;20281;-74
2022/12/01 11:57:25;;;;;;;30.50;18.87;;;3.00;99.90;;;;;;5112888;28;20209;-73
2022/12/01 12:00:02;;;;;;;31.50;20.80;;;3.10;99.90;;;;;;5130757;27;20209;-76
2022/12/01 12:02:42;;;;;;;31.73;20.80;;;3.00;99.90;;;;;;5133605;27;20209;-78
2022/12/01 12:05:44;;;;;;;35.07;21.17;;;3.10;99.90;;;;;;5115595;28;20189;-76
2022/12/01 12:08:26;;;;;;;33.03;21.60;;;3.10;99.90;;;;;;5132355;28;20190;-80
2022/12/01 12:11:03;;;;;;;33.50;20.93;;;3.20;99.90;;;;;;5137481;28;20193;-76
2022/12/01 12:13:56;;;;;;;31.20;20.70;;;3.10;99.90;;;;;;5144078;28;20266;-78
2022/12/01 12:16:37;;;;;;;30.63;20.90;;;3.10;99.90;;;;;;5098133;28;20258;-82
2022/12/01 12:19:22;;;;;;;30.37;20.43;;;3.10;99.90;;;;;;5124097;28;20201;-76
2022/12/01 12:22:17;;;;;;;34.77;21.77;;;3.20;99.90;;;;;;5133213;28;20711;-73
2022/12/01 12:24:58;;;;;;;32.80;21.60;;;3.10;99.90;;;;;;5133343;28;20751;-76
2022/12/01 12:27:37;;;;;;;30.30;20.23;;;3.20;99.90;;;;;;5112765;28;20195;-82
2022/12/01 12:30:18;;;;;;;31.27;20.97;;;3.10;99.90;;;;;;5112890;28;20475;-78
2022/12/01 12:33:25;;;;;;;28.13;20.67;;;3.10;99.90;;;;;;5112292;28;20234;-79
2022/12/01 12:36:03;;;;;;;33.97;20.90;;;3.10;99.90;;;;;;5124473;28;20205;-77
2022/12/01 12:38:46;;;;;;;31.70;20.43;;;3.20;99.90;;;;;;5133356;28;20190;-77
2022/12/01 12:41:28;;;;;;;31.47;20.50;;;3.30;99.90;;;;;;5132923;28;20193;-79
2022/12/01 12:44:17;;;;;;;30.57;20.53;;;3.40;99.90;;;;;;5132387;28;20632;-79
2022/12/01 12:46:53;;;;;;;28.77;19.67;;;3.50;99.90;;;;;;5115871;28;20194;-75
2022/12/01 12:49:31;;;;;;;30.43;21.23;;;3.50;99.90;;;;;;5116672;28;20205;-76
2022/12/01 12:52:04;;;;;;;33.00;21.53;;;3.50;99.90;;;;;;5119306;27;20213;-77
2022/12/01 12:54:43;;;;;;;36.13;23.53;;;3.40;99.90;;;;;;5137040;27;20205;-74
2022/12/01 12:57:20;;;;;;;41.53;25.93;;;3.50;99.90;;;;;;5137529;27;20687;-77
2022/12/01 12:59:53;;;;;;;37.60;23.60;;;3.40;99.90;;;;;;5136600;27;20291;-77
2022/12/01 13:02:27;;;;;;;38.93;25.20;;;3.40;99.90;;;;;;5136812;27;20206;-79
2022/12/01 13:05:00;;;;;;;40.40;24.93;;;3.50;99.90;;;;;;5119237;27;20588;-80
2022/12/01 13:07:36;;;;;;;38.43;24.77;;;3.40;99.90;;;;;;5135199;27;20208;-74
2022/12/01 13:10:13;;;;;;;37.63;24.73;;;3.40;99.90;;;;;;5136555;27;20213;-78